Time;durP1;ratioP1;P1;durP2;ratioP2;P2;SDS_P1;SDS_P2;PMS_P1;PMS_P2;Temp;Humidity;BMP_temperature;BMP_pressure;BME280_temperature;BME280_humidity;BME280_pressure;Samples;Min_cycle;Max_cycle;Signal;HPM_P1;HPM_P2
2021/07/12 02:47:32;;;;;;;2.65;1.90;;;19.40;92.50;;;;;;4812522;24;20068;-75
2021/07/12 02:50:00;;;;;;;3.70;2.60;;;19.40;92.50;;;;;;4730738;30;20435;-75
2021/07/12 02:52:57;;;;;;;3.60;2.05;;;19.40;92.50;;;;;;4731689;30;20204;-75
2021/07/12 02:55:24;;;;;;;3.47;2.10;;;19.40;92.50;;;;;;4647855;30;20117;-75
2021/07/12 02:57:50;;;;;;;3.80;2.17;;;19.40;92.50;;;;;;4662003;30;20278;-74
2021/07/12 03:00:17;;;;;;;3.13;2.63;;;19.40;92.60;;;;;;4661946;30;20346;-75
2021/07/12 03:02:43;;;;;;;3.38;2.78;;;19.40;92.80;;;;;;4675880;30;20109;-74
2021/07/12 03:05:13;;;;;;;3.72;2.38;;;19.40;92.80;;;;;;4666876;30;20047;-75
2021/07/12 03:07:42;;;;;;;3.95;2.40;;;19.40;92.90;;;;;;4661834;30;20034;-75
2021/07/12 03:10:12;;;;;;;4.90;2.33;;;19.40;92.90;;;;;;4661655;30;20042;-75
2021/07/12 03:12:50;;;;;;;3.00;2.25;;;19.40;92.90;;;;;;4676071;30;20050;-75
2021/07/12 03:15:25;;;;;;;4.15;2.42;;;19.40;93.00;;;;;;4659006;30;20041;-75
2021/07/12 03:17:53;;;;;;;2.90;2.42;;;19.40;93.00;;;;;;4673647;30;20034;-76
2021/07/12 03:20:20;;;;;;;2.75;2.35;;;19.40;93.10;;;;;;4661439;30;20297;-75
2021/07/12 03:22:53;;;;;;;5.68;2.42;;;19.40;93.10;;;;;;4675846;30;20040;-75
2021/07/12 03:25:26;;;;;;;3.45;2.50;;;19.40;93.00;;;;;;4661393;30;20081;-75
2021/07/12 03:27:57;;;;;;;4.05;2.45;;;19.40;92.90;;;;;;4674597;30;20102;-75
2021/07/12 03:30:25;;;;;;;5.70;2.85;;;19.50;92.90;;;;;;4675743;30;20043;-75
2021/07/12 03:32:52;;;;;;;6.05;3.05;;;19.50;92.90;;;;;;4727461;30;20040;-75
2021/07/12 03:35:25;;;;;;;4.07;2.83;;;19.60;92.90;;;;;;4717155;30;20284;-75
2021/07/12 03:37:55;;;;;;;6.88;3.17;;;19.50;92.80;;;;;;4730919;30;20082;-75
2021/07/12 03:40:23;;;;;;;3.50;2.80;;;19.50;92.90;;;;;;4746408;30;20036;-75
2021/07/12 03:42:49;;;;;;;6.80;3.40;;;19.40;93.00;;;;;;4730877;30;20029;-74
2021/07/12 03:45:15;;;;;;;4.47;3.08;;;19.50;93.00;;;;;;4730954;30;20028;-75
2021/07/12 03:47:47;;;;;;;4.95;3.30;;;19.50;93.00;;;;;;4746439;30;20124;-75
2021/07/12 03:50:16;;;;;;;5.97;3.60;;;19.50;93.00;;;;;;4730939;30;20032;-75
2021/07/12 03:52:45;;;;;;;6.55;3.63;;;19.60;93.00;;;;;;4716175;30;20055;-75
2021/07/12 03:55:13;;;;;;;5.15;3.22;;;19.50;92.80;;;;;;4746191;30;20231;-75
2021/07/12 03:57:40;;;;;;;5.25;3.10;;;19.60;92.70;;;;;;4730539;30;20032;-74
2021/07/12 04:00:07;;;;;;;;;;;19.60;92.60;;;;;;4731058;30;20040;-75
2021/07/12 04:02:38;;;;;;;4.75;3.03;;;19.70;92.40;;;;;;4746071;30;19969;-75
2021/07/12 04:05:06;;;;;;;3.87;2.77;;;19.70;92.30;;;;;;4746276;30;20051;-75
2021/07/12 04:07:32;;;;;;;4.18;2.83;;;19.80;92.40;;;;;;4746150;30;20043;-76
2021/07/12 04:09:58;;;;;;;4.13;3.08;;;19.80;92.30;;;;;;4725611;30;20379;-75
2021/07/12 04:12:24;;;;;;;4.45;2.92;;;19.80;92.10;;;;;;4730468;30;20032;-75
2021/07/12 04:14:52;;;;;;;7.78;2.97;;;19.80;92.10;;;;;;4746164;30;20047;-76
2021/07/12 04:17:18;;;;;;;5.93;3.00;;;19.90;92.10;;;;;;4734507;30;20122;-75
2021/07/12 04:19:44;;;;;;;5.47;3.38;;;19.90;92.10;;;;;;4730386;30;20080;-75
2021/07/12 04:22:10;;;;;;;3.13;2.78;;;19.80;92.10;;;;;;4729833;30;20057;-75
2021/07/12 04:24:36;;;;;;;5.05;2.95;;;19.70;92.20;;;;;;4730349;30;20040;-75
2021/07/12 04:27:02;;;;;;;3.78;2.53;;;19.80;92.20;;;;;;4745870;30;20025;-74
2021/07/12 04:29:27;;;;;;;3.75;2.85;;;19.80;92.00;;;;;;4718539;30;20071;-75
2021/07/12 04:31:55;;;;;;;6.38;3.40;;;19.90;92.00;;;;;;4745657;30;20091;-75
2021/07/12 04:34:21;;;;;;;5.90;3.42;;;19.90;91.70;;;;;;4745790;30;20024;-75
2021/07/12 04:36:46;;;;;;;10.85;5.22;;;19.90;91.60;;;;;;4730135;30;20037;-75
2021/07/12 04:39:13;;;;;;;4.00;3.58;;;19.90;91.70;;;;;;4730515;30;20243;-75
2021/07/12 04:41:39;;;;;;;4.05;3.42;;;20.10;91.60;;;;;;4745301;30;20036;-76
2021/07/12 04:44:05;;;;;;;4.95;3.08;;;20.10;91.60;;;;;;4730070;30;20025;-76
2021/07/12 04:46:31;;;;;;;6.22;3.22;;;20.30;91.40;;;;;;4714937;30;20300;-76
2021/07/12 04:48:56;;;;;;;4.60;2.95;;;20.30;91.10;;;;;;4745521;30;20032;-75
2021/07/12 04:51:22;;;;;;;3.97;2.50;;;20.30;91.10;;;;;;4745334;30;20075;-76
2021/07/12 04:53:48;;;;;;;3.45;2.20;;;20.30;91.00;;;;;;4714579;30;20340;-77
2021/07/12 04:56:14;;;;;;;4.63;2.78;;;20.30;91.00;;;;;;4729578;30;20321;-76
2021/07/12 04:58:45;;;;;;;2.60;2.40;;;20.30;91.20;;;;;;4715169;30;20039;-75
2021/07/12 05:01:11;;;;;;;4.05;2.50;;;20.30;91.00;;;;;;4744882;30;20041;-75
2021/07/12 05:03:37;;;;;;;3.95;2.08;;;20.40;90.70;;;;;;4729559;30;20320;-75
2021/07/12 05:06:03;;;;;;;8.68;2.90;;;20.40;90.70;;;;;;4714874;30;20191;-76
2021/07/12 05:08:29;;;;;;;3.97;2.88;;;20.50;90.80;;;;;;4729593;30;20052;-75
2021/07/12 05:10:56;;;;;;;4.05;2.53;;;20.50;90.70;;;;;;4729542;30;20039;-76
2021/07/12 05:13:22;;;;;;;3.50;2.20;;;20.60;90.60;;;;;;4714621;30;20036;-75
2021/07/12 05:15:48;;;;;;;6.80;2.30;;;20.70;90.20;;;;;;4743888;30;20047;-75
2021/07/12 05:18:14;;;;;;;5.53;2.20;;;20.70;90.10;;;;;;4718868;30;20033;-75
2021/07/12 05:20:40;;;;;;;19.50;3.10;;;20.80;90.10;;;;;;4744838;30;20036;-75
2021/07/12 05:23:05;;;;;;;4.65;2.33;;;20.80;89.60;;;;;;4728653;30;20016;-75
2021/07/12 05:25:31;;;;;;;3.55;1.92;;;20.80;89.80;;;;;;4744643;30;20024;-75
2021/07/12 05:27:57;;;;;;;3.50;2.08;;;21.00;89.50;;;;;;4728760;30;20037;-75
2021/07/12 05:30:23;;;;;;;4.93;2.13;;;21.40;88.00;;;;;;4744596;30;20055;-75
2021/07/12 05:32:49;;;;;;;2.20;1.83;;;22.20;86.00;;;;;;4728864;30;20032;-75
2021/07/12 05:35:15;;;;;;;10.13;2.55;;;23.20;80.70;;;;;;4728874;30;20181;-75
2021/07/12 05:37:41;;;;;;;5.03;1.83;;;24.30;76.60;;;;;;4744413;30;20060;-75
2021/07/12 05:40:08;;;;;;;6.07;1.88;;;24.80;72.00;;;;;;4744396;30;20055;-75
2021/07/12 05:42:34;;;;;;;2.53;1.73;;;25.40;70.60;;;;;;4728600;30;20024;-76
2021/07/12 05:45:00;;;;;;;4.32;2.05;;;25.70;67.70;;;;;;4744754;30;20060;-76
2021/07/12 05:47:26;;;;;;;3.40;2.03;;;26.10;67.80;;;;;;4746988;30;20287;-76
2021/07/12 05:49:52;;;;;;;9.17;2.07;;;26.30;65.80;;;;;;4725753;30;20029;-76
2021/07/12 05:52:18;;;;;;;2.80;1.83;;;26.60;65.00;;;;;;4744241;30;20213;-76
2021/07/12 05:54:44;;;;;;;2.97;1.50;;;26.80;63.90;;;;;;4744897;30;20316;-76
2021/07/12 05:57:10;;;;;;;9.85;1.88;;;27.00;63.40;;;;;;4719609;30;20056;-75
2021/07/12 05:59:36;;;;;;;5.57;1.55;;;27.10;62.50;;;;;;4728477;30;20047;-76
2021/07/12 06:02:04;;;;;;;3.53;1.05;;;26.90;61.80;;;;;;4726719;30;20127;-76
2021/07/12 06:04:29;;;;;;;2.97;1.60;;;26.90;62.70;;;;;;4727251;30;20032;-76
2021/07/12 06:06:55;;;;;;;2.38;1.20;;;27.10;61.80;;;;;;4728603;30;20312;-76
2021/07/12 06:09:21;;;;;;;4.18;1.65;;;27.20;62.00;;;;;;4723188;30;20417;-76
2021/07/12 06:11:47;;;;;;;6.35;4.15;;;27.00;61.80;;;;;;4744069;30;20308;-75
2021/07/12 06:14:13;;;;;;;1.90;1.00;;;26.80;63.10;;;;;;4727771;30;20047;-76
2021/07/12 06:16:39;;;;;;;3.33;1.50;;;26.60;62.70;;;;;;4728854;30;20036;-76
2021/07/12 06:19:04;;;;;;;5.70;1.55;;;26.60;63.70;;;;;;4744391;30;20033;-76
2021/07/12 06:21:30;;;;;;;1.75;1.33;;;26.50;63.00;;;;;;4728278;30;20108;-75
2021/07/12 06:23:56;;;;;;;7.60;1.00;;;26.50;63.70;;;;;;4713862;30;20056;-76
2021/07/12 06:26:22;;;;;;;4.63;1.42;;;26.40;65.10;;;;;;4728522;30;20139;-76
2021/07/12 06:28:48;;;;;;;3.72;1.35;;;26.70;64.80;;;;;;4728290;30;20087;-75
2021/07/12 06:31:13;;;;;;;1.67;0.98;;;26.50;63.60;;;;;;4728292;30;20115;-76
2021/07/12 06:33:39;;;;;;;1.55;1.27;;;26.50;64.00;;;;;;4743889;30;20056;-76
2021/07/12 06:36:06;;;;;;;4.05;1.02;;;26.60;64.30;;;;;;4713577;30;20033;-76
2021/07/12 06:38:32;;;;;;;;;;;26.80;63.00;;;;;;4728481;30;20055;-77
2021/07/12 06:40:58;;;;;;;4.27;1.67;;;26.90;62.60;;;;;;4737580;30;19926;-76
2021/07/12 06:43:25;;;;;;;3.67;1.05;;;27.10;62.10;;;;;;4743666;30;20316;-76
2021/07/12 06:45:51;;;;;;;6.53;1.63;;;27.30;63.80;;;;;;4713286;30;20165;-76
2021/07/12 06:48:17;;;;;;;4.15;1.20;;;27.70;64.50;;;;;;4715631;30;20032;-76
2021/07/12 06:50:43;;;;;;;1.33;1.17;;;28.00;60.90;;;;;;4713162;30;20032;-76
2021/07/12 06:53:08;;;;;;;3.97;1.63;;;28.00;60.90;;;;;;4743283;30;20044;-76
2021/07/12 06:55:34;;;;;;;2.38;1.00;;;28.10;61.20;;;;;;4742964;30;20036;-76
2021/07/12 06:58:04;;;;;;;2.37;1.50;;;28.30;59.80;;;;;;4722985;30;20344;-77
2021/07/12 07:00:32;;;;;;;4.45;1.50;;;28.30;58.30;;;;;;4743025;30;20092;-76
2021/07/12 07:03:02;;;;;;;4.72;1.40;;;28.30;60.10;;;;;;4712975;30;20039;-76
2021/07/12 07:05:28;;;;;;;3.10;1.48;;;28.40;59.70;;;;;;4727751;30;20324;-75
2021/07/12 07:08:02;;;;;;;1.75;1.05;;;28.40;58.30;;;;;;4727912;30;20299;-77
2021/07/12 07:10:41;;;;;;;3.65;1.83;;;28.20;59.60;;;;;;4728163;30;20033;-76
2021/07/12 07:13:08;;;;;;;1.97;1.30;;;28.20;58.90;;;;;;4727838;30;20135;-76
2021/07/12 07:15:34;;;;;;;;;;;27.90;60.40;;;;;;4743842;30;20040;-76
2021/07/12 07:17:59;;;;;;;1.23;1.13;;;27.80;61.40;;;;;;4730912;30;19910;-76
2021/07/12 07:20:26;;;;;;;1.33;1.20;;;27.60;58.70;;;;;;4731090;30;20032;-76
2021/07/12 07:22:52;;;;;;;3.25;1.42;;;27.60;60.90;;;;;;4730511;30;20024;-75
2021/07/12 07:25:17;;;;;;;2.95;1.50;;;27.50;60.00;;;;;;4746196;30;20042;-76
2021/07/12 07:27:52;;;;;;;2.95;1.42;;;27.30;61.00;;;;;;4717051;30;20387;-76
2021/07/12 07:30:18;;;;;;;5.23;1.60;;;27.20;60.30;;;;;;4746097;30;20037;-76
2021/07/12 07:32:44;;;;;;;4.80;1.55;;;27.00;62.20;;;;;;4745424;30;20036;-75
2021/07/12 07:35:10;;;;;;;6.47;1.65;;;26.90;60.60;;;;;;4743620;30;20063;-75
2021/07/12 07:37:36;;;;;;;3.42;2.10;;;26.80;62.40;;;;;;4731340;30;20044;-75
2021/07/12 07:40:06;;;;;;;3.37;1.63;;;26.90;63.60;;;;;;4717238;30;20048;-76
2021/07/12 07:42:32;;;;;;;3.35;1.70;;;27.20;62.00;;;;;;4730339;30;20039;-76
2021/07/12 07:44:59;;;;;;;3.67;1.73;;;27.40;62.60;;;;;;4745029;30;20032;-76
2021/07/12 07:47:25;;;;;;;;;;;27.70;61.10;;;;;;4730833;30;20053;-76
2021/07/12 07:49:51;;;;;;;5.35;1.85;;;27.90;63.00;;;;;;4715725;30;19957;-76
2021/07/12 07:52:18;;;;;;;3.10;1.52;;;28.00;61.30;;;;;;4716369;30;20040;-76
2021/07/12 07:54:43;;;;;;;5.43;1.70;;;28.00;60.80;;;;;;4746400;30;20035;-75
2021/07/12 07:57:09;;;;;;;2.78;1.90;;;28.00;61.10;;;;;;4730555;30;20573;-75
2021/07/12 07:59:35;;;;;;;7.47;2.13;;;27.80;61.40;;;;;;4724242;30;20154;-75
2021/07/12 08:02:00;;;;;;;4.30;1.93;;;27.80;61.80;;;;;;4730258;30;20036;-76
2021/07/12 08:04:26;;;;;;;5.63;1.77;;;27.60;61.80;;;;;;4730140;30;20031;-76
2021/07/12 08:06:52;;;;;;;5.57;2.05;;;27.60;61.20;;;;;;4727551;30;20068;-75
2021/07/12 08:09:18;;;;;;;6.03;2.20;;;27.60;61.60;;;;;;4745883;30;20324;-75
2021/07/12 08:11:46;;;;;;;4.13;1.67;;;27.60;63.00;;;;;;4729990;30;20062;-76
2021/07/12 08:14:12;;;;;;;2.90;1.52;;;27.50;57.70;;;;;;4730140;30;20104;-76
2021/07/12 08:16:38;;;;;;;2.27;1.43;;;27.40;60.00;;;;;;4747080;30;20035;-75
2021/07/12 08:19:03;;;;;;;5.50;1.88;;;27.20;62.80;;;;;;4715589;30;20029;-76
2021/07/12 08:21:29;;;;;;;5.18;2.63;;;27.20;61.30;;;;;;4745012;30;20354;-75
2021/07/12 08:23:55;;;;;;;4.60;2.08;;;27.30;62.00;;;;;;4743022;30;20100;-76
2021/07/12 08:26:21;;;;;;;4.20;1.87;;;27.40;62.60;;;;;;4729050;30;20048;-76
2021/07/12 08:28:47;;;;;;;3.80;2.00;;;27.60;59.70;;;;;;4729063;30;20289;-75
2021/07/12 08:31:13;;;;;;;2.45;1.80;;;27.50;60.60;;;;;;4744928;30;20037;-75
2021/07/12 08:33:39;;;;;;;5.17;2.10;;;27.30;62.30;;;;;;4729479;30;20251;-76
2021/07/12 08:36:05;;;;;;;3.57;1.97;;;27.30;61.40;;;;;;4745221;30;20044;-76
2021/07/12 08:38:31;;;;;;;3.85;2.67;;;27.50;60.20;;;;;;4741087;30;20282;-76
2021/07/12 08:40:57;;;;;;;3.45;2.33;;;27.50;60.20;;;;;;4728927;30;20049;-76
2021/07/12 08:43:23;;;;;;;6.10;2.33;;;27.70;60.70;;;;;;4714972;30;20264;-75
2021/07/12 08:45:49;;;;;;;5.28;2.65;;;27.80;60.50;;;;;;4706853;30;20057;-76
2021/07/12 08:48:16;;;;;;;3.97;2.42;;;28.00;59.30;;;;;;4729674;30;20048;-75
2021/07/12 08:50:42;;;;;;;5.38;2.63;;;28.00;58.00;;;;;;4745379;30;20204;-75
2021/07/12 08:53:10;;;;;;;4.55;2.33;;;27.90;59.10;;;;;;4744605;30;20037;-75
2021/07/12 08:55:36;;;;;;;10.85;2.25;;;28.00;60.40;;;;;;4729354;30;20074;-75
2021/07/12 08:58:07;;;;;;;2.97;2.40;;;28.30;61.10;;;;;;4729409;30;20052;-75
2021/07/12 09:00:53;;;;;;;3.45;2.10;;;28.50;59.20;;;;;;4744809;30;20060;-75
2021/07/12 09:03:23;;;;;;;;;;;28.60;57.00;;;;;;4714968;30;20040;-75
2021/07/12 09:05:52;;;;;;;3.47;1.70;;;28.50;56.70;;;;;;4745137;30;19914;-75
2021/07/12 09:08:33;;;;;;;6.80;2.35;;;28.50;56.30;;;;;;4744913;30;20108;-75
2021/07/12 09:11:18;;;;;;;1.92;1.70;;;28.60;57.20;;;;;;4744980;30;20044;-75
2021/07/12 09:13:50;;;;;;;2.35;1.58;;;28.70;55.90;;;;;;4744221;30;20104;-75
2021/07/12 09:16:31;;;;;;;3.05;1.70;;;28.90;57.50;;;;;;4744810;30;20029;-75
2021/07/12 09:19:11;;;;;;;1.75;1.40;;;29.00;55.30;;;;;;4719291;30;20037;-75
2021/07/12 09:21:43;;;;;;;2.42;1.75;;;29.10;56.80;;;;;;4728917;30;20051;-75
2021/07/12 09:24:33;;;;;;;2.38;1.23;;;29.10;55.30;;;;;;4727352;30;20029;-75
2021/07/12 09:27:01;;;;;;;2.63;1.73;;;29.30;56.20;;;;;;4741678;30;20095;-75
2021/07/12 09:29:37;;;;;;;1.88;1.50;;;29.40;55.30;;;;;;4729216;30;20249;-75
2021/07/12 09:32:05;;;;;;;5.80;2.20;;;29.60;54.70;;;;;;4738758;30;20043;-74
2021/07/12 09:34:32;;;;;;;9.02;1.85;;;29.70;55.70;;;;;;4728539;30;20035;-75
2021/07/12 09:36:57;;;;;;;2.45;1.58;;;29.80;55.90;;;;;;4744543;30;20035;-76
2021/07/12 09:39:30;;;;;;;4.40;2.10;;;30.10;57.20;;;;;;4744343;30;20316;-75
2021/07/12 09:42:04;;;;;;;5.05;2.28;;;30.10;58.00;;;;;;4728348;30;20224;-76
2021/07/12 09:44:31;;;;;;;3.50;2.83;;;30.20;56.60;;;;;;4712606;30;20025;-76
2021/07/12 09:47:04;;;;;;;4.82;2.25;;;30.10;55.10;;;;;;4728792;30;20053;-75
2021/07/12 09:49:30;;;;;;;20.20;2.17;;;29.60;56.00;;;;;;4719986;30;20059;-76
2021/07/12 09:51:59;;;;;;;6.10;2.93;;;29.20;56.90;;;;;;4742569;30;20032;-76
2021/07/12 09:54:29;;;;;;;5.72;2.80;;;29.10;57.50;;;;;;4728379;30;20036;-77
2021/07/12 09:56:56;;;;;;;6.35;3.60;;;29.20;59.40;;;;;;4714005;30;20090;-76
2021/07/12 09:59:23;;;;;;;4.03;3.13;;;29.30;58.60;;;;;;4728367;30;20261;-76
2021/07/12 10:01:51;;;;;;;4.05;2.97;;;29.40;57.60;;;;;;4727777;30;20036;-77
2021/07/12 10:04:17;;;;;;;4.95;3.42;;;29.40;58.40;;;;;;4728280;30;20028;-76
2021/07/12 10:06:47;;;;;;;7.00;3.60;;;29.40;58.50;;;;;;4728011;30;20370;-75
2021/07/12 10:09:14;;;;;;;7.15;3.70;;;29.30;57.40;;;;;;4727959;30;20302;-76
2021/07/12 10:11:42;;;;;;;7.97;2.97;;;29.20;56.90;;;;;;4728244;30;20036;-75
2021/07/12 10:14:09;;;;;;;3.78;3.00;;;29.20;58.10;;;;;;4727950;30;20028;-76
2021/07/12 10:16:36;;;;;;;4.63;2.50;;;29.10;58.00;;;;;;4743757;30;20029;-76
2021/07/12 10:19:02;;;;;;;6.38;3.13;;;29.30;58.30;;;;;;4743707;30;20217;-76
2021/07/12 10:21:54;;;;;;;4.28;2.60;;;29.50;58.30;;;;;;4743905;30;20328;-76
2021/07/12 10:24:26;;;;;;;10.05;4.10;;;29.70;57.60;;;;;;4655901;30;20030;-76
2021/07/12 10:26:57;;;;;;;3.85;2.72;;;29.80;56.40;;;;;;4657446;30;20156;-75
2021/07/12 10:29:27;;;;;;;6.47;3.13;;;30.00;57.80;;;;;;4656089;30;20338;-76
2021/07/12 10:32:06;;;;;;;4.88;2.50;;;30.20;55.10;;;;;;4671795;30;20042;-77
2021/07/12 10:34:46;;;;;;;12.73;2.40;;;30.40;55.90;;;;;;4672636;30;20074;-76
2021/07/12 10:37:28;;;;;;;4.35;3.08;;;30.50;56.40;;;;;;4658636;30;20066;-76
2021/07/12 10:39:57;;;;;;;7.25;3.05;;;30.40;54.40;;;;;;4672514;30;20074;-75
2021/07/12 10:42:41;;;;;;;2.97;2.30;;;30.10;55.30;;;;;;4658584;30;20171;-76
2021/07/12 10:45:20;;;;;;;3.20;2.50;;;29.90;56.70;;;;;;4658632;30;20385;-76
2021/07/12 10:47:47;;;;;;;5.18;2.60;;;29.70;57.60;;;;;;4675113;30;20074;-75
2021/07/12 10:50:34;;;;;;;5.97;3.08;;;29.70;57.60;;;;;;4655646;30;20046;-76
2021/07/12 10:53:26;;;;;;;8.15;2.30;;;29.80;57.30;;;;;;4672767;30;20038;-76
2021/07/12 10:55:58;;;;;;;3.22;1.73;;;29.90;55.20;;;;;;4676131;30;20081;-75
2021/07/12 10:58:26;;;;;;;3.05;1.98;;;29.90;57.30;;;;;;4676008;30;20065;-76
2021/07/12 11:00:54;;;;;;;3.45;1.95;;;30.00;55.40;;;;;;4704563;30;20066;-75
2021/07/12 11:03:40;;;;;;;2.60;2.13;;;29.80;56.10;;;;;;4747043;30;20067;-76
2021/07/12 11:06:27;;;;;;;1.77;1.58;;;30.00;55.40;;;;;;4745421;30;20036;-76
2021/07/12 11:08:57;;;;;;;3.22;2.08;;;30.20;56.40;;;;;;4716869;30;20036;-76
2021/07/12 11:11:23;;;;;;;6.65;2.78;;;30.70;55.30;;;;;;4719259;30;20051;-76
2021/07/12 11:13:57;;;;;;;10.10;2.13;;;31.10;55.20;;;;;;4731159;30;20328;-75
2021/07/12 11:16:37;;;;;;;4.55;2.05;;;31.10;54.80;;;;;;4731227;30;20229;-76
2021/07/12 11:19:24;;;;;;;3.55;2.22;;;31.10;53.00;;;;;;4731069;30;20044;-76
2021/07/12 11:22:13;;;;;;;10.43;2.10;;;31.10;53.70;;;;;;4727772;30;20068;-76
2021/07/12 11:25:02;;;;;;;6.30;2.20;;;30.80;54.00;;;;;;4675168;30;20038;-76
2021/07/12 11:27:35;;;;;;;5.22;2.33;;;30.60;52.80;;;;;;4661377;30;20078;-75
2021/07/12 11:30:30;;;;;;;6.65;2.08;;;30.50;53.30;;;;;;4659127;30;20374;-75
2021/07/12 11:32:56;;;;;;;2.10;1.85;;;30.50;54.90;;;;;;4675117;30;20373;-75
2021/07/12 11:35:22;;;;;;;;;;;30.90;54.00;;;;;;4661076;30;20047;-76
2021/07/12 11:37:49;;;;;;;3.92;1.95;;;31.20;54.30;;;;;;4675147;30;19970;-76
2021/07/12 11:40:15;;;;;;;4.30;2.30;;;31.50;53.60;;;;;;4674836;30;20046;-75
2021/07/12 11:42:42;;;;;;;;;;;31.90;53.80;;;;;;4657796;30;20101;-77
2021/07/12 11:45:15;;;;;;;13.48;3.22;;;31.70;51.70;;;;;;4660485;30;20195;-75
2021/07/12 11:47:53;;;;;;;12.82;3.50;;;31.70;54.70;;;;;;4646617;30;20058;-75
2021/07/12 11:50:25;;;;;;;4.13;2.80;;;31.60;53.80;;;;;;4673275;30;20045;-76
2021/07/12 11:52:56;;;;;;;12.38;4.10;;;31.50;52.10;;;;;;4660385;30;20340;-75
2021/07/12 11:55:33;;;;;;;5.85;3.35;;;31.20;53.50;;;;;;4674993;30;20357;-75
2021/07/12 11:58:00;;;;;;;;;;;31.10;54.40;;;;;;4675930;30;20038;-75
2021/07/12 12:00:31;;;;;;;12.50;3.70;;;31.40;54.50;;;;;;4658146;30;20231;-76
2021/07/12 12:03:03;;;;;;;20.80;4.30;;;31.50;53.40;;;;;;4727649;30;20033;-76
2021/07/12 12:05:31;;;;;;;4.75;2.90;;;31.10;55.00;;;;;;4726073;30;20037;-75
2021/07/12 12:07:58;;;;;;;4.82;3.28;;;31.00;55.60;;;;;;4725813;30;20069;-76
2021/07/12 12:10:33;;;;;;;5.97;3.88;;;31.10;55.50;;;;;;4746033;30;20256;-75
2021/07/12 12:13:11;;;;;;;7.63;3.90;;;30.80;54.50;;;;;;4730287;30;20115;-76
2021/07/12 12:15:48;;;;;;;5.22;3.90;;;30.50;55.50;;;;;;4745619;30;20043;-75
2021/07/12 12:18:19;;;;;;;5.43;3.90;;;30.50;57.00;;;;;;4745191;30;20059;-76
2021/07/12 12:20:48;;;;;;;12.07;4.40;;;30.50;56.40;;;;;;4745610;30;20042;-76
2021/07/12 12:23:22;;;;;;;5.10;4.35;;;30.70;57.10;;;;;;4724187;30;20025;-75
2021/07/12 12:26:06;;;;;;;9.50;4.10;;;30.90;56.10;;;;;;4740213;30;20040;-76
2021/07/12 12:28:36;;;;;;;5.07;3.60;;;31.20;57.50;;;;;;4740870;30;20029;-76
2021/07/12 12:31:08;;;;;;;4.30;3.80;;;31.40;53.60;;;;;;4745866;30;20115;-75
2021/07/12 12:33:40;;;;;;;4.25;3.13;;;31.60;51.70;;;;;;4729729;30;20025;-75
2021/07/12 12:36:28;;;;;;;3.63;3.33;;;31.70;50.80;;;;;;4729669;30;20032;-76
2021/07/12 12:39:10;;;;;;;3.67;2.85;;;31.80;50.80;;;;;;4729551;30;20087;-76
2021/07/12 12:41:46;;;;;;;3.28;2.97;;;32.00;51.10;;;;;;4742096;30;20051;-77
2021/07/12 12:44:14;;;;;;;4.25;3.20;;;32.00;51.60;;;;;;4728377;30;20059;-75
2021/07/12 12:46:48;;;;;;;3.28;2.80;;;31.90;49.70;;;;;;4744744;30;20104;-75
2021/07/12 12:49:19;;;;;;;4.97;2.85;;;31.80;50.80;;;;;;4727305;30;20029;-76
2021/07/12 12:51:53;;;;;;;4.82;2.60;;;31.80;51.10;;;;;;4728654;30;20033;-76
2021/07/12 12:54:28;;;;;;;11.82;3.10;;;31.90;50.60;;;;;;4726115;30;20091;-76
2021/07/12 12:56:56;;;;;;;6.55;3.58;;;31.90;51.30;;;;;;4745267;30;20033;-75
2021/07/12 12:59:32;;;;;;;6.32;3.35;;;32.00;52.00;;;;;;4743747;30;20036;-75
2021/07/12 13:02:21;;;;;;;4.18;2.88;;;32.10;51.30;;;;;;4744749;30;20087;-75
2021/07/12 13:04:57;;;;;;;5.03;2.83;;;32.40;51.70;;;;;;4726840;30;20029;-75
2021/07/12 13:07:27;;;;;;;3.85;2.65;;;32.50;51.40;;;;;;4741644;30;20035;-76
2021/07/12 13:10:07;;;;;;;4.43;2.78;;;32.50;50.90;;;;;;4723578;30;20033;-76
2021/07/12 13:12:47;;;;;;;5.20;3.05;;;32.50;51.30;;;;;;4744877;30;20059;-76
2021/07/12 13:15:15;;;;;;;2.90;2.65;;;32.30;52.80;;;;;;4738543;30;20074;-75
2021/07/12 13:17:41;;;;;;;4.22;3.00;;;32.40;53.00;;;;;;4744487;30;20423;-76
2021/07/12 13:20:13;;;;;;;11.35;2.75;;;32.40;51.70;;;;;;4729094;30;20072;-76
2021/07/12 13:22:41;;;;;;;4.60;2.65;;;32.30;52.40;;;;;;4723697;30;20031;-76
2021/07/12 13:25:11;;;;;;;5.13;3.25;;;32.10;52.70;;;;;;4736828;30;20032;-75
2021/07/12 13:27:40;;;;;;;3.75;3.28;;;32.30;51.90;;;;;;4741188;30;20029;-77
2021/07/12 13:30:12;;;;;;;4.72;3.10;;;32.50;52.20;;;;;;4725107;30;20041;-75
2021/07/12 13:32:49;;;;;;;5.60;3.85;;;32.50;51.00;;;;;;4744338;30;20048;-76
2021/07/12 13:35:29;;;;;;;4.68;3.20;;;32.30;51.20;;;;;;4728815;30;20032;-75
2021/07/12 13:37:58;;;;;;;4.03;2.97;;;32.20;52.20;;;;;;4742285;30;20024;-76
2021/07/12 13:40:25;;;;;;;9.85;4.20;;;32.30;53.10;;;;;;4735227;30;20047;-76
2021/07/12 13:42:51;;;;;;;3.30;3.00;;;32.50;51.40;;;;;;4730063;30;20209;-76
2021/07/12 13:45:18;;;;;;;4.80;3.57;;;32.60;51.40;;;;;;4725528;30;20043;-76
2021/07/12 13:47:45;;;;;;;3.63;2.88;;;32.50;51.60;;;;;;4739971;30;20378;-76
2021/07/12 13:50:14;;;;;;;8.45;3.28;;;32.40;51.80;;;;;;4743996;30;20056;-76
2021/07/12 13:52:45;;;;;;;5.32;2.85;;;32.50;52.50;;;;;;4725053;30;20041;-76
2021/07/12 13:55:14;;;;;;;4.22;2.75;;;32.60;51.70;;;;;;4732723;30;20056;-75
2021/07/12 13:57:40;;;;;;;8.77;7.82;;;32.60;52.10;;;;;;4743797;30;20343;-76
2021/07/12 14:00:09;;;;;;;6.95;3.20;;;32.80;52.10;;;;;;4729709;30;20040;-76
2021/07/12 14:02:38;;;;;;;3.92;3.22;;;32.90;51.80;;;;;;4728623;30;20082;-75
2021/07/12 14:05:05;;;;;;;5.00;2.70;;;33.00;50.20;;;;;;4728090;30;20392;-76
2021/07/12 14:07:31;;;;;;;4.30;2.83;;;33.00;51.90;;;;;;4740014;30;20159;-76
2021/07/12 14:09:57;;;;;;;4.37;3.20;;;33.00;51.30;;;;;;4737330;30;20244;-76
2021/07/12 14:12:23;;;;;;;3.23;2.90;;;32.90;50.50;;;;;;4731720;30;20028;-76
2021/07/12 14:14:48;;;;;;;6.63;3.33;;;32.80;50.60;;;;;;4744069;30;20035;-75
2021/07/12 14:17:15;;;;;;;7.80;3.33;;;32.80;51.60;;;;;;4728260;30;20052;-76
2021/07/12 14:19:42;;;;;;;3.28;3.00;;;32.80;50.60;;;;;;4738330;30;20017;-75
2021/07/12 14:22:09;;;;;;;8.38;3.70;;;32.80;50.40;;;;;;4715371;30;20179;-76
2021/07/12 14:24:36;;;;;;;5.95;3.15;;;33.00;51.70;;;;;;4743838;30;20028;-75
2021/07/12 14:27:04;;;;;;;4.18;2.88;;;33.30;51.40;;;;;;4731378;30;20052;-76
2021/07/12 14:29:29;;;;;;;5.13;2.60;;;33.50;50.80;;;;;;4743731;30;20105;-76
2021/07/12 14:31:55;;;;;;;3.50;2.63;;;33.70;50.50;;;;;;4731633;30;20041;-76
2021/07/12 14:34:21;;;;;;;3.47;3.10;;;33.70;49.80;;;;;;4743575;30;20075;-76
2021/07/12 14:36:47;;;;;;;4.20;3.03;;;33.60;50.60;;;;;;4743935;30;20059;-77
2021/07/12 14:39:13;;;;;;;8.83;3.43;;;33.60;50.00;;;;;;4744044;30;20033;-77
2021/07/12 14:41:40;;;;;;;4.33;3.50;;;33.50;50.10;;;;;;4739961;30;20033;-77
2021/07/12 14:44:06;;;;;;;8.20;3.75;;;33.40;50.10;;;;;;4742157;30;20033;-76
2021/07/12 14:46:32;;;;;;;3.30;3.00;;;33.30;49.70;;;;;;4743110;30;20045;-76
2021/07/12 14:48:58;;;;;;;9.43;3.40;;;33.20;50.30;;;;;;4733240;30;20055;-77
2021/07/12 14:51:24;;;;;;;3.90;3.15;;;33.00;51.00;;;;;;4743576;30;20041;-77
2021/07/12 14:53:53;;;;;;;11.73;3.40;;;33.00;51.00;;;;;;4741196;30;20170;-78
2021/07/12 14:56:19;;;;;;;7.30;3.65;;;33.00;50.90;;;;;;4735726;30;20330;-77
2021/07/12 14:58:46;;;;;;;4.18;3.78;;;32.70;50.90;;;;;;4741788;30;20261;-76
2021/07/12 15:01:15;;;;;;;4.68;3.55;;;32.50;52.30;;;;;;4715153;30;20056;-77
2021/07/12 15:03:41;;;;;;;6.22;3.78;;;32.50;52.10;;;;;;4742620;30;20036;-76
2021/07/12 15:06:07;;;;;;;4.00;3.23;;;32.50;51.70;;;;;;4735615;30;20025;-76
2021/07/12 15:08:32;;;;;;;7.23;4.03;;;32.50;51.40;;;;;;4729148;30;20116;-76
2021/07/12 15:10:58;;;;;;;3.90;3.50;;;32.40;52.00;;;;;;4730233;30;20078;-77
2021/07/12 15:13:24;;;;;;;4.97;3.47;;;32.30;52.00;;;;;;4743362;30;20040;-77
2021/07/12 15:15:52;;;;;;;5.37;3.90;;;32.50;51.80;;;;;;4742418;30;20036;-77
2021/07/12 15:18:18;;;;;;;5.68;3.90;;;32.50;50.50;;;;;;4727650;30;20107;-77
2021/07/12 15:20:45;;;;;;;5.03;4.35;;;32.30;51.50;;;;;;4717625;30;20044;-77
2021/07/12 15:23:10;;;;;;;7.00;3.92;;;32.20;51.80;;;;;;4731361;30;20071;-76
2021/07/12 15:25:36;;;;;;;3.67;3.30;;;32.20;52.10;;;;;;4747830;30;20032;-77
2021/07/12 15:28:02;;;;;;;6.93;3.93;;;32.30;51.70;;;;;;4722363;30;20249;-76
2021/07/12 15:30:28;;;;;;;9.40;3.77;;;32.10;51.80;;;;;;4730827;30;20266;-77
2021/07/12 15:32:54;;;;;;;7.43;3.80;;;32.10;51.60;;;;;;4750018;30;20282;-77
2021/07/12 15:35:19;;;;;;;4.03;3.63;;;32.10;51.70;;;;;;4726670;30;20064;-77
2021/07/12 15:37:45;;;;;;;8.80;3.80;;;32.10;51.30;;;;;;4739713;30;20087;-77
2021/07/12 15:40:12;;;;;;;4.83;4.07;;;32.00;52.20;;;;;;4710069;30;20037;-77
2021/07/12 15:42:38;;;;;;;6.07;4.22;;;32.00;51.80;;;;;;4730772;30;20039;-77
2021/07/12 15:45:05;;;;;;;6.28;4.20;;;31.90;52.40;;;;;;4730555;30;20033;-77